Time;durP1;ratioP1;P1;durP2;ratioP2;P2;SDS_P1;SDS_P2;PMS_P1;PMS_P2;Temp;Humidity;BMP_temperature;BMP_pressure;BME280_temperature;BME280_humidity;BME280_pressure;Samples;Min_cycle;Max_cycle;Signal;HPM_P1;HPM_P2
2021/10/12 00:01:44;;;;;;;9.85;3.33;;;11.60;77.00;;;;;;5051844;28;20043;-77
2021/10/12 00:04:10;;;;;;;9.18;3.42;;;11.60;77.10;;;;;;5052723;28;20499;-77
2021/10/12 00:06:35;;;;;;;11.05;3.33;;;11.50;77.20;;;;;;5038950;28;20744;-77
2021/10/12 00:09:01;;;;;;;6.93;3.10;;;11.50;77.10;;;;;;5039039;28;20542;-76
2021/10/12 00:11:30;;;;;;;11.18;3.63;;;11.60;77.00;;;;;;5038855;28;20034;-77
2021/10/12 00:13:56;;;;;;;5.30;3.20;;;11.70;76.90;;;;;;5045573;28;20076;-77
2021/10/12 00:16:22;;;;;;;12.20;3.40;;;11.60;76.80;;;;;;5038772;28;20488;-77
2021/10/12 00:18:48;;;;;;;7.85;3.55;;;11.70;76.50;;;;;;5038709;28;20049;-77
2021/10/12 00:21:14;;;;;;;9.48;3.80;;;11.60;76.70;;;;;;5044726;28;20902;-77
2021/10/12 00:23:40;;;;;;;6.72;4.07;;;11.60;76.80;;;;;;5058452;28;20071;-76
2021/10/12 00:26:06;;;;;;;8.25;4.18;;;11.60;76.60;;;;;;5077847;28;20036;-77
2021/10/12 00:28:34;;;;;;;7.82;3.33;;;11.60;76.70;;;;;;5053216;28;20026;-77
2021/10/12 00:31:01;;;;;;;9.88;3.65;;;11.50;76.60;;;;;;5038471;28;20053;-77
2021/10/12 00:33:26;;;;;;;10.07;3.88;;;11.50;76.60;;;;;;5038235;28;20031;-77
2021/10/12 00:35:52;;;;;;;11.45;3.72;;;11.40;76.80;;;;;;5036981;28;20061;-77
2021/10/12 00:38:18;;;;;;;8.57;3.72;;;11.40;76.90;;;;;;5038002;28;20030;-77
2021/10/12 00:40:44;;;;;;;6.75;3.20;;;11.50;76.60;;;;;;5038181;28;20037;-77
2021/10/12 00:43:09;;;;;;;9.13;3.88;;;11.50;76.50;;;;;;5038110;28;20159;-76
2021/10/12 00:45:37;;;;;;;9.23;3.80;;;11.30;76.40;;;;;;5037992;28;20034;-75
2021/10/12 00:48:06;;;;;;;10.18;3.90;;;11.20;76.80;;;;;;5038020;28;20021;-78
2021/10/12 00:50:33;;;;;;;14.07;3.78;;;11.20;77.10;;;;;;5036712;28;20076;-78
2021/10/12 00:53:00;;;;;;;9.50;3.50;;;11.20;77.00;;;;;;5037935;28;20080;-77
2021/10/12 00:55:26;;;;;;;8.98;3.65;;;11.20;77.00;;;;;;5037683;28;20108;-77
2021/10/12 00:57:53;;;;;;;9.02;3.22;;;11.10;77.00;;;;;;5037820;28;20104;-77
2021/10/12 01:00:19;;;;;;;6.10;3.05;;;11.10;77.30;;;;;;5037019;28;20056;-75
2021/10/12 01:02:45;;;;;;;5.05;3.72;;;11.00;77.10;;;;;;5038081;28;20021;-77
2021/10/12 01:05:11;;;;;;;7.50;3.17;;;11.00;77.30;;;;;;5037964;28;20491;-75
2021/10/12 01:07:36;;;;;;;9.35;4.45;;;11.00;77.40;;;;;;5037561;28;20087;-75
2021/10/12 01:10:08;;;;;;;7.95;3.15;;;11.00;77.30;;;;;;5037872;28;20026;-75
2021/10/12 01:12:34;;;;;;;12.15;3.50;;;10.90;77.20;;;;;;5036413;28;20095;-75
2021/10/12 01:15:02;;;;;;;7.57;3.58;;;10.90;77.00;;;;;;5037675;28;20052;-75
2021/10/12 01:17:28;;;;;;;9.57;3.67;;;10.90;76.80;;;;;;5037425;28;20403;-77
2021/10/12 01:19:53;;;;;;;6.97;3.60;;;10.90;77.10;;;;;;5049086;28;20032;-77
2021/10/12 01:22:19;;;;;;;7.63;3.00;;;10.80;77.30;;;;;;5056177;28;20032;-75
2021/10/12 01:24:45;;;;;;;8.43;3.50;;;10.80;77.30;;;;;;5059372;28;20065;-77
2021/10/12 01:27:11;;;;;;;7.60;3.50;;;10.80;77.20;;;;;;5057397;28;20559;-75
2021/10/12 01:29:37;;;;;;;9.93;3.40;;;10.80;77.20;;;;;;5040735;28;20487;-77
2021/10/12 01:32:02;;;;;;;11.32;3.72;;;10.80;77.30;;;;;;5037560;28;20459;-75
2021/10/12 01:34:28;;;;;;;10.13;3.35;;;10.80;77.50;;;;;;5036849;28;20021;-75
2021/10/12 01:36:54;;;;;;;7.78;3.65;;;10.80;77.30;;;;;;5037197;28;20117;-78
2021/10/12 01:39:20;;;;;;;6.10;3.05;;;10.80;77.00;;;;;;5037118;28;20053;-77
2021/10/12 01:41:46;;;;;;;7.00;3.10;;;10.80;77.10;;;;;;5037060;28;20036;-75
2021/10/12 01:44:14;;;;;;;7.53;3.55;;;10.70;77.10;;;;;;5052472;28;20092;-77
2021/10/12 01:46:40;;;;;;;6.57;3.47;;;10.80;77.20;;;;;;5035582;28;20033;-77
2021/10/12 01:49:06;;;;;;;10.63;3.60;;;10.70;77.10;;;;;;5036903;28;20029;-77
2021/10/12 01:51:32;;;;;;;11.50;3.40;;;10.70;77.10;;;;;;5041778;28;20486;-75
2021/10/12 01:54:00;;;;;;;10.90;3.72;;;10.70;77.10;;;;;;5056861;28;20028;-74
2021/10/12 01:56:25;;;;;;;13.60;4.40;;;10.70;77.20;;;;;;5049232;28;20041;-77
2021/10/12 01:58:51;;;;;;;11.77;4.03;;;10.70;77.00;;;;;;5037084;28;20093;-77
2021/10/12 02:01:21;;;;;;;6.25;3.65;;;10.70;77.10;;;;;;5051919;28;20037;-77
2021/10/12 02:03:47;;;;;;;8.18;3.92;;;10.70;77.00;;;;;;5035352;28;20448;-75
2021/10/12 02:06:13;;;;;;;8.73;3.58;;;10.70;76.80;;;;;;5036559;28;20100;-75
2021/10/12 02:08:39;;;;;;;10.02;3.35;;;10.70;76.80;;;;;;5035434;28;20028;-75
2021/10/12 02:11:04;;;;;;;11.32;3.25;;;10.60;77.10;;;;;;5036693;28;20034;-75
2021/10/12 02:13:30;;;;;;;7.85;3.35;;;10.60;77.10;;;;;;5036426;28;20072;-75
2021/10/12 02:15:56;;;;;;;7.63;3.45;;;10.60;77.00;;;;;;5034630;28;20030;-75
2021/10/12 02:18:21;;;;;;;11.50;4.07;;;10.50;76.90;;;;;;5036433;28;20029;-75
2021/10/12 02:20:48;;;;;;;12.32;4.07;;;10.50;77.30;;;;;;5052188;28;20048;-75
2021/10/12 02:23:14;;;;;;;8.00;3.42;;;10.50;77.20;;;;;;5056441;28;20124;-75
2021/10/12 02:25:40;;;;;;;4.88;3.20;;;10.50;77.00;;;;;;5071652;28;20059;-75
2021/10/12 02:28:08;;;;;;;11.75;3.97;;;10.50;77.20;;;;;;5058634;28;20022;-75
2021/10/12 02:30:33;;;;;;;9.63;3.00;;;10.50;77.30;;;;;;5035092;28;20155;-75
2021/10/12 02:32:59;;;;;;;6.28;3.00;;;10.50;77.20;;;;;;5035875;28;20021;-75
2021/10/12 02:35:25;;;;;;;7.85;3.70;;;10.40;77.30;;;;;;5035741;28;20026;-75
2021/10/12 02:37:51;;;;;;;9.23;3.03;;;10.40;77.40;;;;;;5035975;28;20574;-75
2021/10/12 02:40:16;;;;;;;6.00;3.35;;;10.40;77.30;;;;;;5036064;28;20040;-75
2021/10/12 02:42:42;;;;;;;13.27;4.13;;;10.40;77.60;;;;;;5036234;28;20041;-75
2021/10/12 02:45:08;;;;;;;9.10;4.20;;;10.30;77.60;;;;;;5035616;28;20033;-75
2021/10/12 02:47:34;;;;;;;12.43;3.72;;;10.30;77.80;;;;;;5034111;28;20017;-75
2021/10/12 02:50:01;;;;;;;10.15;3.55;;;10.30;77.90;;;;;;5035858;28;20026;-75
2021/10/12 02:52:27;;;;;;;8.80;4.03;;;10.30;78.60;;;;;;5035691;28;20032;-75
2021/10/12 02:54:52;;;;;;;6.70;3.25;;;10.30;78.40;;;;;;5051001;28;20025;-75
2021/10/12 02:57:18;;;;;;;8.60;3.28;;;10.20;78.40;;;;;;5041667;28;20041;-75
2021/10/12 02:59:44;;;;;;;5.38;2.97;;;10.30;78.20;;;;;;5034331;28;20475;-75
2021/10/12 03:02:12;;;;;;;8.43;3.30;;;10.20;77.60;;;;;;5034385;28;20483;-75
2021/10/12 03:04:37;;;;;;;7.57;3.22;;;10.20;77.30;;;;;;5034083;28;20040;-74
2021/10/12 03:07:03;;;;;;;10.00;3.60;;;10.20;78.00;;;;;;5050836;28;20029;-75
2021/10/12 03:09:29;;;;;;;7.22;3.25;;;10.20;78.20;;;;;;5035347;28;20132;-75
2021/10/12 03:11:54;;;;;;;7.15;3.70;;;10.20;78.40;;;;;;5035488;28;20034;-75
2021/10/12 03:14:20;;;;;;;10.02;3.63;;;10.20;78.40;;;;;;5048064;28;20041;-75
2021/10/12 03:16:45;;;;;;;13.05;3.25;;;10.20;77.90;;;;;;5054264;28;20036;-75
2021/10/12 03:19:16;;;;;;;7.32;3.53;;;10.10;77.90;;;;;;5054026;28;20569;-75
2021/10/12 03:21:50;;;;;;;5.40;2.90;;;10.10;77.80;;;;;;5045440;28;20085;-75
2021/10/12 03:24:16;;;;;;;8.02;3.50;;;10.10;77.90;;;;;;5050734;28;20066;-75
2021/10/12 03:26:42;;;;;;;11.38;4.25;;;10.00;78.00;;;;;;5075615;28;20024;-75
2021/10/12 03:29:07;;;;;;;12.55;3.92;;;10.00;78.50;;;;;;5053887;28;20021;-76
2021/10/12 03:31:33;;;;;;;8.20;4.38;;;9.90;79.20;;;;;;5035123;28;20029;-75
2021/10/12 03:33:59;;;;;;;7.32;3.20;;;10.00;79.00;;;;;;5035190;28;20054;-75
2021/10/12 03:36:27;;;;;;;13.40;3.65;;;10.10;78.50;;;;;;5035213;28;20037;-75
2021/10/12 03:38:52;;;;;;;8.88;3.42;;;10.20;77.90;;;;;;5034069;28;20040;-75
2021/10/12 03:41:18;;;;;;;10.20;3.80;;;10.20;78.10;;;;;;5035154;28;20041;-75
2021/10/12 03:43:44;;;;;;;8.38;3.42;;;10.10;78.30;;;;;;5035210;28;20037;-75
2021/10/12 03:46:09;;;;;;;7.55;3.58;;;10.00;78.10;;;;;;5034983;28;20033;-75
2021/10/12 03:48:35;;;;;;;5.05;3.00;;;10.00;78.20;;;;;;5035151;28;20025;-75
2021/10/12 03:51:01;;;;;;;8.73;3.05;;;10.00;77.90;;;;;;5033720;28;20406;-75
2021/10/12 03:53:27;;;;;;;7.78;3.45;;;10.00;77.80;;;;;;5034971;28;20806;-74
2021/10/12 03:55:52;;;;;;;6.57;2.95;;;10.00;77.70;;;;;;5035083;28;20436;-75
2021/10/12 03:58:18;;;;;;;7.65;3.15;;;10.00;77.60;;;;;;5035111;28;20052;-76
2021/10/12 04:00:44;;;;;;;7.57;3.55;;;10.00;77.60;;;;;;5035163;28;20030;-75
2021/10/12 04:03:09;;;;;;;8.85;3.17;;;10.00;77.60;;;;;;5035062;28;20030;-75
2021/10/12 04:05:35;;;;;;;8.30;3.38;;;10.00;77.30;;;;;;5034830;28;20168;-75
2021/10/12 04:08:01;;;;;;;7.60;3.17;;;10.00;77.30;;;;;;5039413;28;20116;-76
2021/10/12 04:10:26;;;;;;;5.10;3.10;;;10.00;77.60;;;;;;5054957;28;20029;-75
2021/10/12 04:12:52;;;;;;;10.32;3.58;;;10.00;77.40;;;;;;5037934;28;20029;-75
2021/10/12 04:15:18;;;;;;;6.80;2.70;;;10.00;77.20;;;;;;5034989;28;20092;-75
2021/10/12 04:17:43;;;;;;;5.30;2.70;;;9.90;77.40;;;;;;5033456;28;20029;-75
2021/10/12 04:20:10;;;;;;;5.30;2.67;;;9.80;78.10;;;;;;5035102;28;20042;-77
2021/10/12 04:22:36;;;;;;;5.35;2.38;;;9.90;78.10;;;;;;5033527;28;20140;-77
2021/10/12 04:25:01;;;;;;;5.55;2.45;;;9.80;77.90;;;;;;5055574;28;20064;-77
2021/10/12 04:27:32;;;;;;;5.85;3.08;;;9.80;78.10;;;;;;5074673;28;20027;-76
2021/10/12 04:29:58;;;;;;;6.93;3.00;;;9.90;78.00;;;;;;5059305;28;20430;-77
2021/10/12 04:32:24;;;;;;;7.05;2.88;;;9.90;77.70;;;;;;5054612;28;20021;-76
2021/10/12 04:34:50;;;;;;;5.55;2.78;;;9.80;76.90;;;;;;5056661;28;20501;-76
2021/10/12 04:37:17;;;;;;;6.60;2.92;;;9.80;77.40;;;;;;5052955;28;20026;-76
2021/10/12 04:39:43;;;;;;;5.35;2.75;;;9.80;77.30;;;;;;5038435;28;20039;-76
2021/10/12 04:42:08;;;;;;;6.60;3.03;;;9.80;77.60;;;;;;5038421;28;20082;-75
2021/10/12 04:44:36;;;;;;;7.35;2.80;;;9.70;77.40;;;;;;5038314;28;20032;-81
2021/10/12 05:10:26;;;;;;;7.30;3.70;;;8.20;82.80;;;;;;5069749;28;20438;-77
2021/10/12 05:13:02;;;;;;;;;;;;;;;;;;;;;
2021/10/12 05:15:29;;;;;;;5.53;2.65;;;8.30;83.20;;;;;;5049826;28;20439;-79
2021/10/12 05:17:56;;;;;;;5.97;3.10;;;8.60;82.80;;;;;;5051643;28;20503;-79
2021/10/12 05:20:22;;;;;;;5.57;2.88;;;8.80;82.10;;;;;;5049425;28;20372;-78
2021/10/12 05:22:48;;;;;;;6.45;2.72;;;9.00;81.20;;;;;;5052256;28;20063;-78
2021/10/12 05:25:15;;;;;;;6.07;3.42;;;9.20;80.70;;;;;;5056302;28;20028;-79
2021/10/12 05:27:41;;;;;;;6.65;3.28;;;9.30;80.30;;;;;;5051781;28;20422;-91
2021/10/12 05:30:11;;;;;;;7.53;3.03;;;9.40;79.90;;;;;;5054480;28;20519;-89
2021/10/12 05:32:37;;;;;;;10.15;3.22;;;9.50;79.60;;;;;;5050928;28;20029;-90
2021/10/12 05:35:05;;;;;;;10.73;4.03;;;9.60;79.10;;;;;;5034960;28;20124;-89
2021/10/12 05:37:31;;;;;;;5.60;4.13;;;9.50;79.30;;;;;;5054956;28;20029;-90
2021/10/12 05:39:56;;;;;;;11.30;5.10;;;9.50;79.30;;;;;;5063693;28;20041;-90
2021/10/12 05:42:22;;;;;;;16.38;7.85;;;9.50;79.00;;;;;;5035172;28;20022;-88
2021/10/12 05:44:48;;;;;;;13.98;7.85;;;9.60;78.70;;;;;;5048766;28;20496;-91
2021/10/12 05:47:17;;;;;;;13.57;7.55;;;9.60;78.60;;;;;;5064061;28;20022;-88
2021/10/12 05:49:42;;;;;;;9.13;5.50;;;9.60;78.40;;;;;;5031899;28;20104;-88
2021/10/12 05:52:12;;;;;;;13.93;5.35;;;9.70;78.40;;;;;;5037728;28;20470;-90
2021/10/12 05:54:44;;;;;;;7.95;4.68;;;9.70;78.10;;;;;;5053851;28;20021;-90
2021/10/12 05:57:19;;;;;;;6.88;4.20;;;9.70;77.90;;;;;;5068394;28;20043;-90
2021/10/12 05:59:45;;;;;;;9.07;4.97;;;9.60;78.00;;;;;;5071570;28;20060;-90
2021/10/12 06:02:10;;;;;;;9.40;4.00;;;9.70;78.00;;;;;;5055951;28;20021;-88
2021/10/12 06:04:36;;;;;;;7.63;4.40;;;9.70;78.00;;;;;;5055988;28;20032;-91
2021/10/12 06:07:02;;;;;;;5.63;4.07;;;9.70;77.80;;;;;;5053065;28;20053;-90
2021/10/12 06:09:28;;;;;;;8.48;3.45;;;9.70;77.80;;;;;;5052322;28;20471;-91
2021/10/12 06:11:53;;;;;;;8.15;3.50;;;9.70;78.10;;;;;;5054357;28;20043;-89
2021/10/12 06:14:19;;;;;;;5.40;3.50;;;9.70;78.00;;;;;;5051644;28;20029;-90
2021/10/12 06:16:45;;;;;;;4.75;3.20;;;9.70;77.90;;;;;;5055576;28;20036;-88
2021/10/12 06:19:10;;;;;;;7.93;3.40;;;9.70;78.10;;;;;;5051625;28;20025;-91
2021/10/12 06:21:36;;;;;;;8.88;3.40;;;9.70;78.30;;;;;;5042599;28;20033;-88
2021/10/12 06:24:02;;;;;;;5.82;3.30;;;9.70;78.50;;;;;;5039367;28;20025;-90
2021/10/12 06:26:27;;;;;;;6.15;3.13;;;9.70;78.50;;;;;;5038938;28;20083;-88
2021/10/12 06:28:53;;;;;;;12.25;3.63;;;9.60;78.30;;;;;;5039577;28;20022;-88
2021/10/12 06:31:19;;;;;;;5.00;2.92;;;9.60;78.20;;;;;;5038131;28;20033;-88
2021/10/12 06:33:44;;;;;;;7.28;3.60;;;9.50;78.50;;;;;;5038177;28;20021;-92
2021/10/12 06:36:10;;;;;;;5.47;3.38;;;9.50;78.50;;;;;;5037679;28;20032;-89
2021/10/12 06:38:36;;;;;;;5.47;3.83;;;9.50;78.00;;;;;;5039018;28;20065;-91
2021/10/12 06:41:01;;;;;;;6.70;4.10;;;9.50;78.40;;;;;;5037696;28;20083;-90
2021/10/12 06:43:27;;;;;;;5.90;3.53;;;9.50;78.30;;;;;;5054254;28;20021;-90
2021/10/12 06:45:53;;;;;;;5.45;3.70;;;9.50;78.50;;;;;;5037643;28;20029;-91
2021/10/12 06:48:18;;;;;;;6.68;3.40;;;9.50;78.20;;;;;;5038887;28;20025;-90
2021/10/12 06:50:44;;;;;;;7.72;3.55;;;9.50;78.10;;;;;;5054263;28;20032;-89
2021/10/12 06:53:09;;;;;;;7.30;3.78;;;9.50;78.10;;;;;;5054246;28;20057;-89
2021/10/12 06:55:35;;;;;;;4.80;3.33;;;9.50;78.80;;;;;;5045235;28;20026;-90
2021/10/12 06:58:01;;;;;;;5.97;3.63;;;9.60;79.10;;;;;;5037830;28;20033;-90
2021/10/12 07:00:27;;;;;;;6.55;3.17;;;9.60;79.00;;;;;;5038973;28;20833;-90
2021/10/12 07:02:52;;;;;;;8.82;3.88;;;9.70;78.50;;;;;;5052407;28;20051;-89
2021/10/12 07:05:18;;;;;;;8.65;3.58;;;9.80;78.40;;;;;;5038508;28;20037;-90
2021/10/12 07:07:44;;;;;;;7.38;4.43;;;9.90;78.50;;;;;;5038407;28;20100;-89
2021/10/12 07:10:12;;;;;;;8.25;4.13;;;9.90;78.60;;;;;;5036808;28;20089;-90
2021/10/12 07:12:38;;;;;;;6.20;3.67;;;10.00;78.60;;;;;;5037123;28;20033;-90
2021/10/12 07:15:05;;;;;;;6.90;4.28;;;10.10;78.70;;;;;;5037168;28;20078;-89
2021/10/12 07:17:32;;;;;;;9.43;5.75;;;10.20;78.50;;;;;;5036825;28;20033;-90
2021/10/12 07:19:58;;;;;;;8.57;5.88;;;10.40;78.20;;;;;;5036331;28;20092;-89
2021/10/12 07:22:24;;;;;;;9.75;5.35;;;10.50;77.90;;;;;;5036765;28;20048;-90
2021/10/12 07:24:51;;;;;;;5.90;3.45;;;10.70;77.40;;;;;;5038156;28;20018;-91
2021/10/12 07:27:17;;;;;;;6.30;4.15;;;10.80;76.50;;;;;;5036420;28;20038;-89
2021/10/12 07:29:45;;;;;;;6.28;3.47;;;11.00;76.30;;;;;;5052039;28;20084;-90
2021/10/12 07:32:11;;;;;;;6.30;3.15;;;11.20;75.90;;;;;;5036999;28;20029;-92
2021/10/12 07:34:37;;;;;;;7.80;3.03;;;11.40;75.20;;;;;;5036654;28;20026;-87
2021/10/12 07:37:03;;;;;;;6.00;3.38;;;11.50;74.60;;;;;;5052846;28;20121;-89
2021/10/12 07:39:28;;;;;;;8.90;3.67;;;11.60;74.70;;;;;;5036940;28;20025;-90
2021/10/12 07:41:54;;;;;;;13.68;3.50;;;11.60;74.60;;;;;;5036312;28;20039;-89
2021/10/12 07:44:20;;;;;;;7.82;3.53;;;11.60;75.20;;;;;;5037291;28;20017;-90
2021/10/12 07:46:45;;;;;;;6.82;2.72;;;11.60;75.30;;;;;;5036232;28;20057;-90
2021/10/12 07:49:11;;;;;;;5.05;2.40;;;11.70;75.40;;;;;;5048823;28;20036;-89
2021/10/12 07:51:37;;;;;;;3.38;1.92;;;11.70;75.70;;;;;;5049343;28;20022;-90
2021/10/12 07:54:08;;;;;;;4.80;1.95;;;11.70;76.40;;;;;;5049218;28;20113;-90
2021/10/12 07:56:36;;;;;;;5.00;2.08;;;11.70;76.10;;;;;;5051693;28;20034;-90
2021/10/12 07:59:10;;;;;;;3.00;2.05;;;11.70;76.20;;;;;;5037329;28;20044;-90
2021/10/12 08:01:37;;;;;;;4.00;2.05;;;11.70;76.30;;;;;;5035354;28;20025;-89
2021/10/12 08:04:04;;;;;;;4.88;2.05;;;11.70;76.50;;;;;;5037135;28;20862;-90
2021/10/12 08:06:30;;;;;;;2.83;2.00;;;11.80;76.70;;;;;;5035533;28;20014;-90
2021/10/12 08:08:56;;;;;;;4.43;2.10;;;11.80;76.90;;;;;;5034840;28;20045;-89
2021/10/12 08:11:25;;;;;;;4.15;1.95;;;11.90;77.00;;;;;;5035523;28;20029;-90
2021/10/12 08:13:54;;;;;;;4.65;2.10;;;11.90;76.60;;;;;;5016076;28;20054;-89
2021/10/12 08:16:25;;;;;;;5.32;2.50;;;12.00;76.70;;;;;;5015887;28;20454;-88
2021/10/12 08:18:51;;;;;;;3.78;2.20;;;12.00;77.10;;;;;;5015841;28;20099;-90
2021/10/12 08:21:17;;;;;;;4.15;2.45;;;12.10;77.40;;;;;;5016123;28;20022;-90
2021/10/12 08:23:42;;;;;;;3.17;1.88;;;12.20;77.30;;;;;;5015277;28;20054;-89
2021/10/12 08:26:08;;;;;;;4.65;2.60;;;12.20;77.30;;;;;;5036609;28;20446;-89
2021/10/12 08:28:34;;;;;;;5.40;2.20;;;12.20;77.30;;;;;;5050837;28;20472;-89
2021/10/12 08:30:59;;;;;;;5.28;2.03;;;12.30;77.40;;;;;;5036443;28;20083;-90
2021/10/12 08:33:25;;;;;;;3.67;2.58;;;12.30;77.70;;;;;;5036167;28;20505;-89
2021/10/12 08:35:51;;;;;;;6.18;2.50;;;12.30;77.60;;;;;;5021635;28;20034;-89
2021/10/12 08:38:19;;;;;;;7.22;2.70;;;12.30;78.80;;;;;;5016228;28;20034;-89
2021/10/12 08:40:45;;;;;;;5.75;2.17;;;12.40;78.40;;;;;;5016314;28;20107;-88
2021/10/12 08:43:11;;;;;;;4.18;2.47;;;12.50;79.20;;;;;;5020546;28;20029;-88
2021/10/12 08:45:40;;;;;;;5.25;3.22;;;12.60;79.50;;;;;;5035178;28;20064;-89
2021/10/12 08:48:07;;;;;;;6.13;2.88;;;12.70;78.10;;;;;;5036043;28;20037;-89
2021/10/12 08:50:33;;;;;;;5.13;2.60;;;12.90;78.70;;;;;;5051412;28;20021;-88
2021/10/12 08:53:01;;;;;;;3.15;2.33;;;13.10;78.30;;;;;;5035267;28;20031;-88
2021/10/12 08:55:28;;;;;;;4.40;2.45;;;13.40;77.50;;;;;;5034509;28;20052;-87
2021/10/12 08:57:54;;;;;;;6.30;2.35;;;13.60;77.40;;;;;;5035738;28;20022;-89
2021/10/12 09:00:21;;;;;;;3.00;2.35;;;13.80;76.60;;;;;;5035825;28;20029;-89
2021/10/12 09:05:58;;;;;;;5.90;2.67;;;13.90;76.70;;;;;;5016201;28;20377;-89
2021/10/12 09:08:26;;;;;;;5.88;2.25;;;14.00;76.50;;;;;;5032420;28;20049;-88
2021/10/12 09:10:53;;;;;;;4.72;2.25;;;14.10;76.20;;;;;;5029920;28;20026;-89
2021/10/12 09:13:19;;;;;;;10.98;2.88;;;14.10;76.50;;;;;;5015901;28;20026;-88
2021/10/12 09:16:15;;;;;;;8.65;2.88;;;14.20;76.40;;;;;;5017090;28;20825;-89
2021/10/12 09:18:57;;;;;;;5.18;2.42;;;14.10;76.60;;;;;;5035169;28;20044;-87
2021/10/12 09:21:25;;;;;;;8.93;3.00;;;14.20;76.60;;;;;;5035675;28;20013;-88
2021/10/12 09:24:09;;;;;;;9.07;3.17;;;14.20;76.50;;;;;;5032998;28;20022;-87
2021/10/12 09:26:40;;;;;;;4.75;2.78;;;14.20;76.90;;;;;;5051248;28;20113;-88
2021/10/12 09:29:33;;;;;;;6.25;2.70;;;14.20;77.00;;;;;;5035627;28;20079;-86
2021/10/12 09:31:59;;;;;;;6.75;2.85;;;14.30;76.80;;;;;;5035359;28;20029;-88
2021/10/12 09:34:30;;;;;;;3.78;2.40;;;14.30;76.10;;;;;;5034829;28;20033;-90
2021/10/12 09:36:57;;;;;;;6.00;2.92;;;14.40;75.90;;;;;;5035478;28;20026;-87
2021/10/12 09:39:37;;;;;;;6.10;2.63;;;14.50;75.70;;;;;;5033858;28;20025;-87
2021/10/12 09:42:08;;;;;;;7.13;3.17;;;14.60;75.30;;;;;;5014401;28;20022;-89
2021/10/12 09:44:35;;;;;;;4.82;2.20;;;14.60;75.30;;;;;;5031417;28;20195;-86
2021/10/12 09:47:13;;;;;;;7.15;2.85;;;14.60;75.40;;;;;;5034551;28;20030;-87
2021/10/12 09:49:39;;;;;;;6.03;2.67;;;14.60;75.20;;;;;;5035472;28;20424;-89
2021/10/12 09:52:08;;;;;;;6.72;2.60;;;14.80;74.90;;;;;;5034768;28;20034;-87
2021/10/12 09:54:37;;;;;;;7.15;3.20;;;14.90;74.80;;;;;;5034101;28;20446;-89
2021/10/12 09:57:05;;;;;;;6.30;2.90;;;14.90;74.50;;;;;;5037440;28;20116;-88
2021/10/12 09:59:32;;;;;;;5.88;3.28;;;14.90;74.70;;;;;;5037212;28;20403;-89
2021/10/12 10:01:59;;;;;;;8.20;2.83;;;15.00;74.60;;;;;;5038849;28;20124;-88
2021/10/12 10:04:27;;;;;;;6.38;2.75;;;15.20;75.30;;;;;;5037070;28;20022;-88
2021/10/12 10:06:57;;;;;;;8.30;3.22;;;15.20;74.30;;;;;;5037586;28;20026;-87
2021/10/12 10:09:23;;;;;;;10.23;3.33;;;15.20;74.20;;;;;;5037575;28;20396;-88
2021/10/12 10:11:50;;;;;;;4.93;2.22;;;15.40;74.20;;;;;;5038573;28;20038;-89
2021/10/12 10:14:18;;;;;;;5.75;2.53;;;15.60;72.60;;;;;;5054028;28;20515;-90
2021/10/12 10:16:50;;;;;;;6.40;2.50;;;15.80;72.60;;;;;;5038488;28;20390;-89
2021/10/12 10:19:22;;;;;;;8.60;3.10;;;15.90;71.60;;;;;;5037368;28;20053;-89
2021/10/12 10:21:49;;;;;;;5.63;2.20;;;15.80;70.00;;;;;;5037760;28;20450;-88
2021/10/12 10:24:36;;;;;;;4.68;2.38;;;15.80;69.30;;;;;;5042516;28;20022;-88
2021/10/12 10:27:02;;;;;;;6.70;2.20;;;15.70;69.20;;;;;;5050588;28;20090;-88
2021/10/12 10:29:36;;;;;;;8.00;2.35;;;15.80;68.30;;;;;;5038315;28;20025;-89
2021/10/12 10:32:16;;;;;;;9.90;2.42;;;15.80;68.50;;;;;;5037196;28;20089;-89
2021/10/12 10:34:44;;;;;;;6.43;2.47;;;15.80;69.00;;;;;;5037045;28;20056;-89
2021/10/12 10:37:16;;;;;;;5.95;2.65;;;15.90;69.00;;;;;;5037549;28;20512;-88
2021/10/12 10:39:43;;;;;;;6.85;2.42;;;16.00;69.10;;;;;;5038326;28;20021;-88
2021/10/12 10:42:29;;;;;;;5.65;2.83;;;16.10;69.50;;;;;;5037428;28;20087;-88
2021/10/12 10:45:01;;;;;;;7.57;3.15;;;16.20;69.60;;;;;;5038081;28;20029;-89
2021/10/12 10:47:42;;;;;;;8.73;2.88;;;16.30;68.70;;;;;;5038027;28;20022;-89
2021/10/12 10:50:27;;;;;;;5.13;2.20;;;16.40;69.20;;;;;;5037486;28;20025;-88
2021/10/12 10:52:57;;;;;;;6.70;2.63;;;16.50;68.00;;;;;;5037532;28;20071;-88
2021/10/12 10:55:25;;;;;;;6.80;2.75;;;16.50;69.30;;;;;;5037868;28;20055;-88
2021/10/12 10:58:16;;;;;;;4.60;2.40;;;16.40;69.20;;;;;;5032575;28;20091;-88
2021/10/12 11:00:48;;;;;;;6.32;2.75;;;16.40;68.20;;;;;;5017766;28;20025;-88
2021/10/12 11:03:25;;;;;;;7.13;2.55;;;16.40;68.00;;;;;;5016641;28;20056;-87
2021/10/12 11:05:52;;;;;;;4.55;2.03;;;16.30;68.00;;;;;;5018548;28;20465;-88
2021/10/12 11:08:23;;;;;;;10.63;2.38;;;16.30;67.10;;;;;;5052669;28;20044;-88
2021/10/12 11:11:07;;;;;;;7.05;2.40;;;16.50;67.80;;;;;;5052826;28;20018;-88
2021/10/12 11:13:39;;;;;;;5.70;2.58;;;16.60;67.90;;;;;;5037396;28;20029;-88
2021/10/12 11:16:07;;;;;;;9.93;2.55;;;16.70;67.30;;;;;;5035331;28;20049;-88
2021/10/12 11:18:33;;;;;;;9.68;2.92;;;16.80;66.50;;;;;;5036328;28;20037;-88
2021/10/12 11:21:02;;;;;;;10.60;2.90;;;16.90;66.90;;;;;;5032065;28;20503;-88
2021/10/12 11:23:34;;;;;;;10.82;2.80;;;17.00;66.60;;;;;;5016139;28;20112;-88
2021/10/12 11:26:04;;;;;;;7.53;2.72;;;17.30;67.30;;;;;;5052777;28;20035;-88
2021/10/12 11:28:33;;;;;;;9.50;2.75;;;17.40;66.20;;;;;;5056967;28;20080;-88
2021/10/12 11:31:10;;;;;;;9.07;2.95;;;17.50;64.80;;;;;;5040056;28;20051;-86
2021/10/12 11:33:43;;;;;;;8.07;4.00;;;17.30;65.00;;;;;;5036322;28;20085;-89
2021/10/12 11:36:10;;;;;;;6.68;3.25;;;17.30;65.90;;;;;;5036859;28;20053;-88
2021/10/12 11:38:48;;;;;;;10.88;3.60;;;17.30;65.70;;;;;;5035822;28;20029;-88
2021/10/12 11:41:23;;;;;;;6.07;3.13;;;17.30;66.00;;;;;;5034955;28;20480;-87
2021/10/12 11:43:51;;;;;;;8.02;2.97;;;17.40;65.90;;;;;;5045418;28;20052;-89
2021/10/12 11:46:33;;;;;;;11.60;3.60;;;17.50;65.90;;;;;;5051993;28;20021;-88
2021/10/12 11:49:13;;;;;;;8.65;3.40;;;17.40;65.80;;;;;;5050748;28;20033;-88
2021/10/12 11:51:40;;;;;;;6.88;3.30;;;17.50;66.40;;;;;;5036863;28;20474;-89
2021/10/12 11:54:06;;;;;;;10.05;3.92;;;17.60;65.50;;;;;;5051968;28;20029;-88
2021/10/12 11:56:35;;;;;;;8.93;3.63;;;17.60;65.70;;;;;;5035898;28;20112;-88
2021/10/12 11:59:02;;;;;;;7.95;3.50;;;17.60;66.20;;;;;;5036561;28;20079;-88
2021/10/12 12:01:30;;;;;;;8.23;3.50;;;17.50;66.20;;;;;;5051894;28;20029;-88
2021/10/12 12:03:57;;;;;;;12.57;3.55;;;17.50;66.50;;;;;;5038095;28;20036;-88
2021/10/12 12:06:30;;;;;;;8.18;3.17;;;17.80;65.90;;;;;;5035085;28;20395;-88
2021/10/12 12:08:59;;;;;;;7.93;3.05;;;18.10;64.80;;;;;;5034974;28;20045;-85
2021/10/12 12:11:27;;;;;;;8.45;2.55;;;18.30;63.80;;;;;;5034402;28;20037;-86
2021/10/12 12:13:55;;;;;;;9.18;2.30;;;18.30;62.60;;;;;;5033856;28;20064;-88
2021/10/12 12:16:22;;;;;;;7.38;2.47;;;17.90;64.50;;;;;;5015442;28;20484;-88
2021/10/12 12:18:47;;;;;;;10.52;2.80;;;17.50;64.40;;;;;;5015861;28;20026;-88
2021/10/12 12:21:14;;;;;;;12.02;2.60;;;17.30;65.50;;;;;;5039089;28;20041;-88
2021/10/12 12:23:47;;;;;;;4.45;2.90;;;17.10;66.00;;;;;;5048148;28;20037;-88
2021/10/12 12:26:20;;;;;;;8.10;2.28;;;17.30;65.60;;;;;;5031472;28;20045;-88
2021/10/12 12:28:46;;;;;;;6.13;2.00;;;17.40;65.10;;;;;;5016146;28;20489;-88
2021/10/12 12:31:26;;;;;;;9.60;2.67;;;17.50;65.30;;;;;;5033606;28;20103;-87
2021/10/12 12:33:55;;;;;;;7.90;2.45;;;17.30;63.80;;;;;;5034761;28;20025;-88
2021/10/12 12:36:32;;;;;;;5.78;2.50;;;17.30;65.70;;;;;;5035945;28;20057;-88
2021/10/12 12:39:06;;;;;;;9.32;2.70;;;17.40;65.30;;;;;;5033398;28;20103;-88
2021/10/12 12:41:40;;;;;;;6.30;3.25;;;17.50;64.80;;;;;;5050873;28;20025;-87
2021/10/12 12:44:09;;;;;;;8.73;3.47;;;17.50;63.90;;;;;;5041856;28;20026;-88
2021/10/12 12:46:35;;;;;;;8.63;2.03;;;17.60;63.50;;;;;;5034847;28;20105;-88
2021/10/12 12:49:08;;;;;;;7.13;2.95;;;17.80;63.70;;;;;;5034844;28;20544;-88
2021/10/12 12:51:48;;;;;;;8.25;3.33;;;17.80;63.10;;;;;;5034276;28;20029;-87
2021/10/12 12:54:33;;;;;;;;;;;17.80;63.30;;;;;;5036030;28;20064;-89
2021/10/12 12:57:16;;;;;;;8.95;2.42;;;18.00;63.70;;;;;;5035038;28;19908;-88
2021/10/12 13:00:02;;;;;;;9.45;3.25;;;18.00;63.50;;;;;;5034493;28;20033;-88
2021/10/12 13:02:29;;;;;;;5.97;2.88;;;17.80;62.90;;;;;;5034031;28;20048;-85
2021/10/12 13:04:54;;;;;;;7.32;2.60;;;17.80;63.90;;;;;;5034021;28;20021;-87
2021/10/12 13:07:20;;;;;;;8.20;2.88;;;18.00;64.40;;;;;;5034611;28;20032;-85
2021/10/12 13:09:48;;;;;;;8.43;2.50;;;17.80;64.10;;;;;;5035368;28;20076;-88
2021/10/12 13:12:17;;;;;;;6.40;2.55;;;17.60;64.00;;;;;;5034481;28;20045;-88
2021/10/12 13:14:49;;;;;;;3.67;2.20;;;17.50;64.60;;;;;;5033991;28;20037;-88
2021/10/12 13:17:19;;;;;;;10.50;2.63;;;17.40;65.10;;;;;;5034773;28;20037;-85
2021/10/12 13:19:48;;;;;;;;;;;17.40;65.10;;;;;;5034515;28;20029;-85